createdAt,value
2022-10-14T00:01:23.595Z,99698.84
2022-10-14T00:03:51.964Z,99700.53
2022-10-14T00:06:23.690Z,99699.66
2022-10-14T00:08:51.330Z,99697.94
2022-10-14T00:11:23.300Z,99694.50
2022-10-14T00:13:53.611Z,99694.47
2022-10-14T00:16:27.748Z,99697.06
2022-10-14T00:18:54.548Z,99693.63
2022-10-14T00:21:21.316Z,99696.16
2022-10-14T00:23:48.220Z,99685.97
2022-10-14T00:26:22.205Z,99692.72
2022-10-14T00:28:49.542Z,99685.03
2022-10-14T00:31:17.684Z,99688.44
2022-10-14T00:33:44.536Z,99689.25
2022-10-14T00:36:14.906Z,99694.31
2022-10-14T00:38:42.354Z,99685.78
2022-10-14T00:41:17.487Z,99695.13
2022-10-14T00:44:00.346Z,99684.91
2022-10-14T00:46:32.064Z,99692.59
2022-10-14T00:49:07.786Z,99694.28
2022-10-14T00:51:36.853Z,99684.81
2022-10-14T00:54:04.866Z,99683.94
2022-10-14T00:56:32.335Z,99681.34
2022-10-14T00:59:02.943Z,99666.88
2022-10-14T01:01:29.954Z,99661.72
2022-10-14T01:03:56.836Z,99665.09
2022-10-14T01:06:45.110Z,99658.31
2022-10-14T01:09:34.610Z,99652.41
2022-10-14T01:12:28.978Z,99648.25
2022-10-14T01:15:14.073Z,99645.72
2022-10-14T01:17:56.837Z,99647.47
2022-10-14T01:20:45.447Z,99639.03
2022-10-14T01:23:52.037Z,99633.16
2022-10-14T01:26:58.542Z,99633.28
2022-10-14T01:30:05.245Z,99624.06
2022-10-14T01:32:59.012Z,99629.28
2022-10-14T01:35:54.005Z,99611.53
2022-10-14T01:38:32.079Z,99619.28
2022-10-14T01:41:08.586Z,99615.88
2022-10-14T01:43:38.226Z,99609.94
2022-10-14T01:46:07.949Z,99601.50
2022-10-14T01:48:40.382Z,99598.09
2022-10-14T01:51:22.638Z,99601.59
2022-10-14T01:54:06.514Z,99606.72
2022-10-14T01:56:39.630Z,99602.56
2022-10-14T01:59:12.585Z,99601.72
2022-10-14T02:01:39.554Z,99601.69
2022-10-14T02:04:18.770Z,99601.63
2022-10-14T02:07:11.439Z,99601.63
2022-10-14T02:09:56.600Z,99604.19
2022-10-14T02:12:42.998Z,99603.38
2022-10-14T02:15:31.159Z,99596.53
2022-10-14T02:18:23.795Z,99593.09
2022-10-14T02:20:59.708Z,99596.50
2022-10-14T02:23:32.870Z,99607.53
2022-10-14T02:26:01.970Z,99593.84
2022-10-14T02:28:32.499Z,99588.63
2022-10-14T02:31:09.810Z,99581.78
2022-10-14T02:33:43.491Z,99574.97
2022-10-14T02:36:15.400Z,99583.41
2022-10-14T02:38:43.494Z,99580.88
2022-10-14T02:41:15.893Z,99577.44
2022-10-14T02:43:44.362Z,99579.13
2022-10-14T02:46:11.612Z,99576.53
2022-10-14T02:48:38.509Z,99574.91
2022-10-14T02:51:05.482Z,99570.63
2022-10-14T02:53:32.461Z,99572.34
2022-10-14T02:55:59.241Z,99578.31
2022-10-14T02:58:26.075Z,99568.94
2022-10-14T03:00:53.017Z,99576.63
2022-10-14T03:03:20.265Z,99570.69
2022-10-14T03:05:47.062Z,99565.56
2022-10-14T03:08:14.066Z,99557.91
2022-10-14T03:10:40.872Z,99559.56
2022-10-14T03:13:07.676Z,99550.16
2022-10-14T03:15:34.418Z,99558.63
2022-10-14T03:18:01.114Z,99550.97
2022-10-14T03:20:27.855Z,99544.94
2022-10-14T03:22:54.562Z,99544.94
2022-10-14T03:25:21.763Z,99523.69
2022-10-14T03:27:48.560Z,99522.00
2022-10-14T03:30:15.804Z,99524.50
2022-10-14T03:32:43.006Z,99518.56
2022-10-14T03:35:10.544Z,99520.28
2022-10-14T03:37:37.340Z,99525.41
2022-10-14T03:40:04.784Z,99525.41
2022-10-14T03:42:31.475Z,99521.94
2022-10-14T03:44:58.271Z,99520.97
2022-10-14T03:47:24.999Z,99526.94
2022-10-14T03:49:51.693Z,99511.59
2022-10-14T03:52:18.595Z,99517.50
2022-10-14T03:54:45.443Z,99526.81
2022-10-14T03:57:12.192Z,99516.56
2022-10-14T03:59:38.926Z,99514.00
2022-10-14T04:02:05.691Z,99513.19
2022-10-14T04:04:32.498Z,99514.06
2022-10-14T04:06:59.685Z,99520.88
2022-10-14T04:09:27.537Z,99520.03
2022-10-14T04:11:55.909Z,99512.38
2022-10-14T04:14:26.551Z,99518.25
2022-10-14T04:16:53.285Z,99525.16
2022-10-14T04:19:20.188Z,99514.03
2022-10-14T04:21:46.977Z,99513.28
2022-10-14T04:24:13.793Z,99518.41
2022-10-14T04:26:40.529Z,99511.66
2022-10-14T04:29:07.274Z,99508.25
2022-10-14T04:31:34.098Z,99506.56
2022-10-14T04:34:00.889Z,99500.56
2022-10-14T04:36:27.609Z,99499.81
2022-10-14T04:38:54.343Z,99496.31
2022-10-14T04:41:21.128Z,99487.75
2022-10-14T04:43:47.845Z,99485.19
2022-10-14T04:46:14.563Z,99487.75
2022-10-14T04:48:41.493Z,99480.06
2022-10-14T04:51:08.293Z,99484.38
2022-10-14T04:53:35.037Z,99480.06
2022-10-14T04:56:01.759Z,99486.88
2022-10-14T04:58:28.466Z,99481.75
2022-10-14T05:00:55.747Z,99485.13
2022-10-14T05:03:22.574Z,99478.34
2022-10-14T05:05:51.811Z,99475.78
2022-10-14T05:08:18.854Z,99476.59
2022-10-14T05:10:47.810Z,99474.84
2022-10-14T05:13:14.831Z,99463.81
2022-10-14T05:15:41.701Z,99467.13
2022-10-14T05:18:13.579Z,99465.34
2022-10-14T05:20:40.278Z,99453.53
2022-10-14T05:23:07.080Z,99464.59
2022-10-14T05:25:33.893Z,99467.13
2022-10-14T05:28:00.640Z,99465.47
2022-10-14T05:30:32.209Z,99466.28
2022-10-14T05:33:01.419Z,99464.53
2022-10-14T05:35:53.569Z,99467.03
2022-10-14T05:38:15.067Z,99466.97
2022-10-14T05:40:41.896Z,99460.13
2022-10-14T05:43:08.746Z,99461.88
2022-10-14T05:45:35.513Z,99454.09
2022-10-14T05:48:02.329Z,99458.28
2022-10-14T05:50:29.018Z,99452.25
2022-10-14T05:52:55.878Z,99453.94
2022-10-14T05:55:22.587Z,99448.88
2022-10-14T05:57:49.452Z,99447.09
2022-10-14T06:00:24.682Z,99442.81
2022-10-14T06:02:52.641Z,99448.81
2022-10-14T06:05:19.898Z,99445.44
2022-10-14T06:07:46.687Z,99445.44
2022-10-14T06:10:13.470Z,99444.56
2022-10-14T06:12:40.212Z,99442.03
2022-10-14T06:15:07.481Z,99441.91
2022-10-14T06:17:34.446Z,99432.56
2022-10-14T06:20:01.252Z,99425.66
2022-10-14T06:22:28.782Z,99424.78
2022-10-14T06:24:56.790Z,99434.94
2022-10-14T06:27:25.181Z,99431.53
2022-10-14T06:29:51.924Z,99431.44
2022-10-14T06:32:18.732Z,99423.69
2022-10-14T06:34:45.737Z,99420.97
2022-10-14T06:37:12.532Z,99419.25
2022-10-14T06:39:39.351Z,99415.78
2022-10-14T06:42:20.780Z,99402.94
2022-10-14T06:44:47.624Z,99403.81
2022-10-14T06:47:14.369Z,99397.88
2022-10-14T06:49:41.205Z,99395.25
2022-10-14T06:52:09.389Z,99399.50
2022-10-14T06:54:39.205Z,99403.69
2022-10-14T06:57:07.102Z,99396.81
2022-10-14T06:59:33.979Z,99393.44
2022-10-14T07:02:01.108Z,99392.56
2022-10-14T07:04:27.966Z,99386.53
2022-10-14T07:06:57.367Z,99380.59
2022-10-14T07:09:30.274Z,99383.09
2022-10-14T07:12:01.342Z,99382.28
2022-10-14T07:14:28.175Z,99383.16
2022-10-14T07:16:55.022Z,99383.97
2022-10-14T07:19:22.461Z,99384.84
2022-10-14T07:21:49.283Z,99378.84
2022-10-14T07:28:57.803Z,99383.53
2022-10-14T07:31:52.623Z,99387.06
2022-10-14T07:34:19.566Z,99403.22
2022-10-14T07:36:49.177Z,99383.59
2022-10-14T07:39:23.370Z,99385.22
2022-10-14T07:41:52.655Z,99387.00
2022-10-14T07:44:23.569Z,99391.19
2022-10-14T07:46:53.493Z,99398.75
2022-10-14T07:49:24.699Z,99396.13
2022-10-14T07:51:51.821Z,99390.16
2022-10-14T07:54:24.142Z,99393.44
2022-10-14T07:56:51.545Z,99399.31
2022-10-14T07:59:21.515Z,99395.75
2022-10-14T08:02:04.767Z,99399.00
2022-10-14T08:04:32.288Z,99398.09
2022-10-14T08:07:17.519Z,99390.25
2022-10-14T08:09:56.795Z,99396.06
2022-10-14T08:12:23.899Z,99390.88
2022-10-14T08:14:51.019Z,99388.25
2022-10-14T08:17:21.208Z,99384.75
2022-10-14T08:19:53.251Z,99385.47
2022-10-14T08:22:20.484Z,99378.53
2022-10-14T08:24:52.181Z,99374.28
2022-10-14T08:27:19.319Z,99366.53
2022-10-14T08:29:46.159Z,99369.91
2022-10-14T08:32:12.899Z,99354.50
2022-10-14T08:34:39.769Z,99352.69
2022-10-14T08:37:06.544Z,99354.38
2022-10-14T08:39:33.464Z,99348.31
2022-10-14T08:42:40.179Z,99349.94
2022-10-14T08:45:45.973Z,99358.31
2022-10-14T08:48:19.692Z,99353.13
2022-10-14T08:51:15.606Z,99353.06
2022-10-14T08:54:05.910Z,99355.50
2022-10-14T08:56:37.770Z,99357.13
2022-10-14T08:59:16.384Z,99354.53
2022-10-14T09:01:57.212Z,99345.78
2022-10-14T09:04:24.164Z,99337.94
2022-10-14T09:06:53.718Z,99335.16
2022-10-14T09:09:44.866Z,99331.66
2022-10-14T09:12:21.795Z,99337.53
2022-10-14T09:15:16.699Z,99330.63
2022-10-14T09:18:01.626Z,99327.94
2022-10-14T09:20:28.559Z,99325.25
2022-10-14T09:23:25.203Z,99322.53
2022-10-14T09:26:20.060Z,99325.09
2022-10-14T09:28:49.222Z,99339.47
2022-10-14T09:31:16.348Z,99329.97
2022-10-14T09:33:44.656Z,99328.94
2022-10-14T09:36:22.265Z,99329.53
2022-10-14T09:38:55.366Z,99320.91
2022-10-14T09:41:30.257Z,99321.63
2022-10-14T09:44:22.444Z,99324.88
2022-10-14T09:46:59.589Z,99325.50
2022-10-14T09:49:40.791Z,99327.09
2022-10-14T09:52:23.287Z,99322.63
2022-10-14T09:55:08.582Z,99323.22
2022-10-14T09:57:35.525Z,99317.00
2022-10-14T10:00:06.448Z,99323.53
2022-10-14T10:02:42.146Z,99316.50
2022-10-14T10:05:25.843Z,99318.81
2022-10-14T10:08:32.432Z,99317.88
2022-10-14T10:11:08.196Z,99315.16
2022-10-14T10:13:44.639Z,99316.63
2022-10-14T10:16:32.836Z,99307.91
2022-10-14T10:19:19.459Z,99299.97
2022-10-14T10:21:47.554Z,99295.56
2022-10-14T10:24:26.021Z,99301.19
2022-10-14T10:26:55.523Z,99294.91
2022-10-14T10:29:35.211Z,99290.38
2022-10-14T10:32:38.839Z,99278.13
2022-10-14T10:35:24.493Z,99282.97
2022-10-14T10:38:11.220Z,99282.72
2022-10-14T10:40:47.423Z,99279.69
2022-10-14T10:43:57.297Z,99280.28
2022-10-14T10:47:16.962Z,99273.03
2022-10-14T10:50:10.010Z,99273.53
2022-10-14T10:53:01.191Z,99261.88
2022-10-14T10:55:39.858Z,99261.19
2022-10-14T10:58:22.113Z,99258.00
2022-10-14T11:01:10.556Z,99260.97
2022-10-14T11:03:54.988Z,99259.84
2022-10-14T11:06:53.304Z,99262.09
2022-10-14T11:09:52.783Z,99255.91
2022-10-14T11:13:06.485Z,99254.81
2022-10-14T11:15:59.595Z,99253.81
2022-10-14T11:18:50.014Z,99250.94
2022-10-14T11:21:58.034Z,99246.41
2022-10-14T11:24:54.638Z,99236.97
2022-10-14T11:27:31.778Z,99237.72
2022-10-14T11:30:18.508Z,99236.81
2022-10-14T11:33:06.582Z,99238.41
2022-10-14T11:36:47.065Z,99237.72
2022-10-14T11:39:38.071Z,99238.56
2022-10-14T11:42:41.240Z,99228.19
2022-10-14T11:45:20.318Z,99224.78
2022-10-14T11:47:51.457Z,99227.22
2022-10-14T11:50:38.046Z,99229.78
2022-10-14T11:53:13.423Z,99229.78
2022-10-14T11:56:08.107Z,99235.69
2022-10-14T11:58:57.793Z,99225.63
2022-10-14T12:01:34.271Z,99220.47
2022-10-14T12:04:19.712Z,99221.47
2022-10-14T12:07:00.886Z,99226.53
2022-10-14T12:10:39.372Z,99215.53
2022-10-14T12:13:15.660Z,99214.88
2022-10-14T12:15:51.691Z,99203.75
2022-10-14T12:18:22.805Z,99207.16
2022-10-14T12:21:03.555Z,99215.88
2022-10-14T12:23:42.535Z,99207.38
2022-10-14T12:26:58.264Z,99193.22
2022-10-14T12:29:37.259Z,99197.59
2022-10-14T12:32:04.535Z,99195.84
2022-10-14T12:34:40.784Z,99186.25
2022-10-14T12:37:39.964Z,99176.72
2022-10-14T12:40:41.693Z,99174.16
2022-10-14T12:44:03.392Z,99171.56
2022-10-14T12:46:49.386Z,99172.50
2022-10-14T12:49:41.527Z,99164.72
2022-10-14T12:52:10.845Z,99159.50
2022-10-14T12:54:58.713Z,99161.16
2022-10-14T12:57:31.529Z,99163.66
2022-10-14T13:00:04.715Z,99158.44
2022-10-14T13:02:37.281Z,99146.25
2022-10-14T13:05:31.398Z,99148.06
2022-10-14T13:08:20.625Z,99150.59
2022-10-14T13:11:12.164Z,99146.34
2022-10-14T13:13:38.886Z,99144.50
2022-10-14T13:16:08.045Z,99143.44
2022-10-14T13:18:39.688Z,99142.47
2022-10-14T13:21:09.605Z,99140.75
2022-10-14T13:23:51.078Z,99150.13
2022-10-14T13:26:51.143Z,99134.75
2022-10-14T13:29:41.027Z,99139.06
2022-10-14T13:32:31.137Z,99125.31
2022-10-14T13:35:15.853Z,99123.63
2022-10-14T13:37:56.507Z,99126.22
2022-10-14T13:40:45.344Z,99133.16
2022-10-14T13:43:40.479Z,99129.06
2022-10-14T13:46:57.313Z,99130.91
2022-10-14T13:49:36.251Z,99128.16
2022-10-14T13:52:17.769Z,99119.31
2022-10-14T13:54:44.523Z,99120.00
2022-10-14T14:00:40.305Z,99117.66
2022-10-14T14:03:29.467Z,99118.25
2022-10-14T14:05:57.638Z,99120.56
2022-10-14T14:08:42.127Z,99118.59
2022-10-14T14:11:18.683Z,99116.69
2022-10-14T14:14:00.386Z,99125.03
2022-10-14T14:16:37.989Z,99115.41
2022-10-14T14:19:10.302Z,99104.22
2022-10-14T14:21:37.927Z,99112.56
2022-10-14T14:24:24.098Z,99103.97
2022-10-14T14:26:55.107Z,99095.28
2022-10-14T14:29:35.242Z,99097.75
2022-10-14T14:32:07.279Z,99093.38
2022-10-14T14:34:37.678Z,99096.78
2022-10-14T14:37:33.910Z,99087.31
2022-10-14T14:40:04.980Z,99089.03
2022-10-14T14:42:38.351Z,99094.19
2022-10-14T14:45:15.335Z,99089.94
2022-10-14T14:47:43.055Z,99077.16
2022-10-14T14:50:32.570Z,99076.16
2022-10-14T14:53:17.232Z,99076.25
2022-10-14T14:56:00.855Z,99072.00
2022-10-14T14:58:50.675Z,99061.72
2022-10-14T15:01:28.007Z,99061.81
2022-10-14T15:04:14.980Z,99061.97
2022-10-14T15:07:01.838Z,99058.63
2022-10-14T15:10:00.177Z,99063.03
2022-10-14T15:12:31.903Z,99059.69
2022-10-14T15:15:01.587Z,99069.16
2022-10-14T15:17:39.707Z,99074.44
2022-10-14T15:20:30.523Z,99072.22
2022-10-14T15:22:57.290Z,99072.25
2022-10-14T15:25:32.961Z,99057.81
2022-10-14T15:28:03.050Z,99063.94
2022-10-14T15:30:39.990Z,99069.25
2022-10-14T15:33:16.870Z,99068.59
2022-10-14T15:35:58.863Z,99067.94
2022-10-14T15:38:26.841Z,99068.06
2022-10-14T15:40:54.274Z,99053.69
2022-10-14T15:43:23.466Z,99050.44
2022-10-14T15:46:15.302Z,99047.22
2022-10-14T15:48:52.195Z,99044.97
2022-10-14T15:51:21.187Z,99045.13
2022-10-14T15:53:48.934Z,99041.88
2022-10-14T15:56:17.042Z,99042.09
2022-10-14T15:58:43.770Z,99028.63
2022-10-14T16:01:23.929Z,99031.38
2022-10-14T16:03:55.288Z,99034.09
2022-10-14T16:06:24.921Z,99036.81
2022-10-14T16:08:52.248Z,99031.78
2022-10-14T16:11:32.227Z,99046.53
2022-10-14T16:13:59.066Z,99042.44
2022-10-14T16:16:36.287Z,99038.28
2022-10-14T16:19:05.117Z,99030.75
2022-10-14T16:21:33.795Z,99039.44
2022-10-14T16:24:02.780Z,99033.59
2022-10-14T16:26:30.676Z,99036.34
2022-10-14T16:28:58.881Z,99031.34
2022-10-14T16:31:26.074Z,99027.25
2022-10-14T16:33:54.779Z,99019.69
2022-10-14T16:36:23.192Z,99030.19
2022-10-14T16:38:50.971Z,99034.66
2022-10-14T16:41:17.935Z,99023.78
2022-10-14T16:43:45.158Z,99031.63
2022-10-14T16:46:15.491Z,99032.75
2022-10-14T16:48:42.704Z,99038.03
2022-10-14T16:51:09.780Z,99044.09
2022-10-14T16:53:44.879Z,99037.47
2022-10-14T16:56:39.745Z,99038.50
2022-10-14T16:59:08.175Z,99047.28
2022-10-14T17:01:34.996Z,99036.31
2022-10-14T17:04:01.904Z,99036.41
2022-10-14T17:06:28.696Z,99040.78
2022-10-14T17:08:55.441Z,99036.66
2022-10-14T17:11:22.848Z,99030.75
2022-10-14T17:13:54.576Z,99025.09
2022-10-14T17:16:22.326Z,99036.41
2022-10-14T17:18:50.660Z,99040.75
2022-10-14T17:21:18.406Z,99022.88
2022-10-14T17:23:45.709Z,99031.53
2022-10-14T17:26:21.121Z,99026.47
2022-10-14T17:28:48.934Z,99004.56
2022-10-14T17:31:20.181Z,99011.50
2022-10-14T17:33:47.351Z,99021.88
2022-10-14T17:36:27.454Z,99014.34
2022-10-14T17:38:55.747Z,99022.31
2022-10-14T17:41:25.224Z,99028.41
2022-10-14T17:43:54.163Z,99033.75
2022-10-14T17:46:24.867Z,99030.50
2022-10-14T17:48:56.119Z,99022.06
2022-10-14T17:51:25.356Z,99026.41
2022-10-14T17:53:58.402Z,99025.69
2022-10-14T17:56:27.212Z,99027.56
2022-10-14T17:58:55.884Z,99030.19
2022-10-14T18:01:36.904Z,99031.16
2022-10-14T18:04:04.584Z,99024.59
2022-10-14T18:06:34.178Z,99027.06
2022-10-14T18:09:05.936Z,99036.63
2022-10-14T18:12:03.453Z,99036.69
2022-10-14T18:14:26.053Z,99048.81
2022-10-14T18:16:53.423Z,99046.38
2022-10-14T18:19:20.163Z,99043.88
2022-10-14T18:21:47.952Z,99046.50
2022-10-14T18:24:14.729Z,99047.47
2022-10-14T18:26:41.555Z,99033.88
2022-10-14T18:29:09.490Z,99029.72
2022-10-14T18:31:39.171Z,99032.34
2022-10-14T18:34:11.130Z,99022.09
2022-10-14T18:36:38.795Z,99020.47
2022-10-14T18:39:09.989Z,99018.78
2022-10-14T18:41:41.941Z,99012.88
2022-10-14T18:44:08.651Z,99018.06
2022-10-14T18:46:38.275Z,99016.38
2022-10-14T18:49:08.098Z,99013.97
2022-10-14T18:51:38.240Z,99012.16
2022-10-14T18:54:18.003Z,99000.38
2022-10-14T18:56:46.617Z,99000.50
2022-10-14T18:59:18.690Z,98997.16
2022-10-14T19:01:47.933Z,98998.13
2022-10-14T19:04:16.137Z,99005.09
2022-10-14T19:06:48.803Z,99011.16
2022-10-14T19:09:18.581Z,99005.19
2022-10-14T19:11:46.687Z,99007.81
2022-10-14T19:14:14.549Z,99007.00
2022-10-14T19:16:42.694Z,99007.09
2022-10-14T19:19:16.648Z,99001.16
2022-10-14T19:21:45.636Z,98996.84
2022-10-14T19:24:13.398Z,98997.72
2022-10-14T19:26:44.992Z,98999.50
2022-10-14T19:29:15.366Z,98995.31
2022-10-14T19:31:43.978Z,98987.69
2022-10-14T19:34:15.162Z,98987.78
2022-10-14T19:36:44.261Z,98978.50
2022-10-14T19:39:15.024Z,98974.25
2022-10-14T19:41:46.418Z,98967.59
2022-10-14T19:44:16.099Z,98963.38
2022-10-14T19:46:44.645Z,98965.19
2022-10-14T19:49:14.123Z,98964.41
2022-10-14T19:51:41.321Z,98971.28
2022-10-14T19:54:10.615Z,98957.81
2022-10-14T19:56:37.338Z,98970.72
2022-10-14T19:59:04.057Z,98969.97
2022-10-14T20:01:31.374Z,98970.94
2022-10-14T20:04:01.276Z,98972.72
2022-10-14T20:06:35.686Z,98967.72
2022-10-14T20:09:03.531Z,98969.59
2022-10-14T20:11:33.728Z,98962.94
2022-10-14T20:14:00.513Z,98963.97
2022-10-14T20:16:27.412Z,98966.72
2022-10-14T20:18:55.569Z,98960.88
2022-10-14T20:21:22.393Z,98961.06
2022-10-14T20:23:49.209Z,98951.00
2022-10-14T20:26:19.923Z,98953.63
2022-10-14T20:28:47.994Z,98952.09
2022-10-14T20:31:25.404Z,98949.66
2022-10-14T20:33:52.313Z,98941.28
2022-10-14T20:36:21.590Z,98945.59
2022-10-14T20:38:49.442Z,98951.63
2022-10-14T20:41:25.583Z,98955.16
2022-10-14T20:43:54.425Z,98954.38
2022-10-14T20:46:22.733Z,98946.88
2022-10-14T20:48:54.945Z,98941.88
2022-10-14T20:51:22.882Z,98944.50
2022-10-14T20:53:50.036Z,98955.75
2022-10-14T20:56:16.826Z,98944.72
2022-10-14T20:58:43.605Z,98947.28
2022-10-14T21:01:16.951Z,98942.22
2022-10-14T21:03:46.041Z,98948.16
2022-10-14T21:06:22.876Z,98950.72
2022-10-14T21:08:51.823Z,98955.84
2022-10-14T21:11:22.325Z,98954.19
2022-10-14T21:13:53.144Z,98947.34
2022-10-14T21:16:24.441Z,98945.69
2022-10-14T21:18:59.237Z,98949.16
2022-10-14T21:21:35.581Z,98945.75
2022-10-14T21:24:03.083Z,98946.59
2022-10-14T21:26:58.441Z,98942.38
2022-10-14T21:30:01.690Z,98945.03
2022-10-14T21:35:44.634Z,98944.25
2022-10-14T21:38:12.854Z,98937.41
2022-10-14T21:43:35.289Z,98936.47
2022-10-14T21:46:16.462Z,98940.75
2022-10-14T21:48:44.714Z,98945.88
2022-10-14T21:51:18.561Z,98945.03
2022-10-14T21:53:50.889Z,98947.56
2022-10-14T21:56:18.373Z,98948.44
2022-10-14T21:58:45.643Z,98941.56
2022-10-14T22:01:29.547Z,98945.00
2022-10-14T22:04:06.601Z,98935.50
2022-10-14T22:06:52.970Z,98935.44
2022-10-14T22:09:26.181Z,98930.31
2022-10-14T22:15:33.294Z,98937.13
2022-10-14T22:18:33.870Z,98943.06
2022-10-14T22:21:27.965Z,98943.84
2022-10-14T22:24:10.031Z,98936.09
2022-10-14T22:26:50.680Z,98928.41
2022-10-14T23:02:18.214Z,98917.81
2022-10-14T23:11:58.052Z,98918.44
2022-10-14T23:14:30.519Z,98911.53
2022-10-14T23:17:31.056Z,98926.66
2022-10-14T23:33:46.957Z,98937.78
2022-10-14T23:51:37.060Z,98920.03
2022-10-14T23:54:43.365Z,98919.84
